Sandusky, Ohio
Current Conditions -  °F | °C
As of 5:33 AM on Tuesday 27 Jan 2015 (Local Time) from KPCW Reporting Station
Few Clouds Few Clouds  
Wind Chill:   Ceiling: Unl
Heat Index: 10°   Visibility: 10mi
Dew Point:   Wind: 5mph
Humidity: 92%   Direction: 10°N
Pressure: 29.98"   Gusts: NA
Location:  41.45°N, 82.71°W
Report Text: KPCW 271033Z AUTO 01004KT 10SM FEW025 M12/M13 A2998 RMK AO2 $
Loading
Personal Weather Stations






























Interactive Weather Map New forecast layout! Learn more

10-Day Weather Forecast

Advertisements
Track Severe Weather on mobile